createdAt,value
2019-04-25T00:01:46.612Z,12.74
2019-04-25T00:06:50.145Z,12.88
2019-04-25T00:11:52.717Z,12.77
2019-04-25T00:16:54.829Z,12.76
2019-04-25T00:22:02.741Z,12.59
2019-04-25T00:27:07.794Z,12.69
2019-04-25T00:32:11.615Z,12.36
2019-04-25T00:37:14.021Z,12.43
2019-04-25T00:42:16.122Z,12.25
2019-04-25T00:47:18.059Z,12.21
2019-04-25T00:52:21.093Z,12.25
2019-04-25T00:57:25.174Z,12.18
2019-04-25T01:02:34.396Z,12.07
2019-04-25T01:07:36.300Z,11.92
2019-04-25T01:12:38.189Z,12.03
2019-04-25T01:17:41.323Z,11.82
2019-04-25T01:22:44.098Z,11.85
2019-04-25T01:27:46.605Z,11.92
2019-04-25T01:32:48.904Z,11.77
2019-04-25T01:37:59.383Z,11.74
2019-04-25T01:43:09.559Z,11.54
2019-04-25T01:48:13.629Z,11.35
2019-04-25T01:53:15.978Z,11.57
2019-04-25T01:58:17.950Z,11.42
2019-04-25T02:03:21.394Z,11.48
2019-04-25T02:08:23.913Z,11.31
2019-04-25T02:13:26.301Z,11.31
2019-04-25T02:18:28.266Z,11.17
2019-04-25T02:23:32.007Z,11.25
2019-04-25T02:28:33.971Z,11.24
2019-04-25T02:33:35.782Z,11.18
2019-04-25T02:38:39.264Z,11.16
2019-04-25T02:43:41.292Z,11.22
2019-04-25T02:49:03.033Z,11.38
2019-04-25T02:54:08.238Z,11.34
2019-04-25T02:59:10.375Z,11.26
2019-04-25T03:04:14.402Z,11.23
2019-04-25T03:09:16.325Z,11.28
2019-04-25T03:14:18.392Z,11.09
2019-04-25T03:19:44.018Z,11.10
2019-04-25T03:24:46.099Z,11.23
2019-04-25T03:29:48.323Z,11.15
2019-04-25T03:34:50.586Z,11.14
2019-04-25T03:39:53.525Z,11.17
2019-04-25T03:44:55.544Z,11.23
2019-04-25T03:49:57.497Z,11.11
2019-04-25T03:54:59.456Z,11.52
2019-04-25T04:00:03.598Z,11.44
2019-04-25T04:05:09.617Z,11.30
2019-04-25T04:10:12.600Z,11.23
2019-04-25T04:15:16.476Z,11.14
2019-04-25T04:20:33.824Z,11.37
2019-04-25T04:25:37.643Z,11.40
2019-04-25T04:30:39.490Z,11.42
2019-04-25T04:35:41.711Z,11.62
2019-04-25T04:40:44.205Z,11.68
2019-04-25T04:45:46.624Z,11.55
2019-04-25T04:50:48.429Z,11.69
2019-04-25T04:55:50.486Z,11.69
2019-04-25T05:00:53.691Z,11.87
2019-04-25T05:06:06.483Z,11.96
2019-04-25T05:11:12.289Z,12.22
2019-04-25T05:16:17.833Z,12.38
2019-04-25T05:21:20.382Z,12.24
2019-04-25T05:26:24.880Z,12.65
2019-04-25T05:31:37.179Z,12.55
2019-04-25T05:36:39.291Z,12.31
2019-04-25T05:41:57.224Z,12.47
2019-04-25T05:46:59.259Z,12.21
2019-04-25T05:52:01.062Z,12.11
2019-04-25T05:57:03.693Z,12.88
2019-04-25T06:02:05.836Z,12.86
2019-04-25T06:07:08.176Z,12.93
2019-04-25T06:12:26.323Z,12.82
2019-04-25T06:17:48.216Z,12.58
2019-04-25T06:23:04.080Z,12.69
2019-04-25T06:28:09.258Z,13.09
2019-04-25T06:33:11.278Z,12.92
2019-04-25T06:38:16.845Z,13.20
2019-04-25T06:43:18.703Z,13.49
2019-04-25T06:48:45.586Z,13.38
2019-04-25T06:53:47.974Z,13.85
2019-04-25T06:58:53.250Z,14.64
2019-04-25T07:03:56.621Z,14.50
2019-04-25T07:08:58.700Z,14.96
2019-04-25T07:14:04.159Z,15.68
2019-04-25T07:19:06.452Z,15.95
2019-04-25T07:24:09.604Z,15.54
2019-04-25T07:29:24.783Z,15.28
2019-04-25T07:34:28.878Z,15.13
2019-04-25T07:39:31.920Z,14.70
2019-04-25T07:44:48.871Z,14.27
2019-04-25T07:49:39.371Z,14.56
2019-04-25T07:54:44.077Z,15.00
2019-04-25T07:59:47.454Z,14.62
2019-04-25T08:04:54.162Z,14.65
2019-04-25T08:09:56.643Z,14.61
2019-04-25T08:15:10.207Z,14.92
2019-04-25T08:20:15.209Z,14.80
2019-04-25T08:25:18.001Z,14.51
2019-04-25T08:30:20.225Z,14.34
2019-04-25T08:35:23.986Z,15.17
2019-04-25T08:40:28.902Z,15.74
2019-04-25T08:45:33.567Z,15.73
2019-04-25T08:51:01.263Z,15.88
2019-04-25T08:56:13.363Z,16.39
2019-04-25T09:01:25.557Z,16.48
2019-04-25T09:06:27.542Z,16.58
2019-04-25T09:11:32.235Z,16.71
2019-04-25T09:16:35.418Z,16.40
2019-04-25T09:21:37.849Z,17.31
2019-04-25T09:26:40.104Z,17.26
2019-04-25T09:31:46.023Z,17.49
2019-04-25T09:36:48.152Z,18.10
2019-04-25T09:41:50.306Z,18.65
2019-04-25T09:47:01.295Z,18.43
2019-04-25T09:52:15.629Z,18.12
2019-04-25T09:57:46.270Z,18.40
2019-04-25T10:02:55.456Z,17.38
2019-04-25T10:07:57.593Z,17.50
2019-04-25T10:12:59.627Z,17.87
2019-04-25T10:18:01.914Z,18.13
2019-04-25T10:23:05.036Z,18.99
2019-04-25T10:28:07.755Z,18.22
2019-04-25T10:33:09.827Z,18.77
2019-04-25T10:38:15.294Z,18.79
2019-04-25T10:43:17.295Z,18.45
2019-04-25T10:48:19.389Z,18.92
2019-04-25T10:53:25.043Z,19.11
2019-04-25T10:58:27.274Z,19.03
2019-04-25T11:03:56.923Z,19.82
2019-04-25T11:08:58.831Z,19.29
2019-04-25T11:14:00.900Z,19.76
2019-04-25T11:19:03.062Z,19.07
2019-04-25T11:24:05.244Z,20.01
2019-04-25T11:29:08.357Z,20.70
2019-04-25T11:34:11.520Z,20.99
2019-04-25T11:39:33.460Z,20.45
2019-04-25T11:44:35.268Z,19.92
2019-04-25T11:49:37.262Z,19.24
2019-04-25T11:54:39.425Z,19.90
2019-04-25T11:59:41.999Z,21.33
2019-04-25T12:04:46.769Z,21.07
2019-04-25T12:09:49.966Z,20.87
2019-04-25T12:14:54.015Z,21.26
2019-04-25T12:19:56.283Z,21.13
2019-04-25T12:25:00.751Z,21.06
2019-04-25T12:30:05.924Z,20.41
2019-04-25T12:35:08.098Z,20.35
2019-04-25T12:40:10.701Z,20.54
2019-04-25T12:45:20.409Z,20.64
2019-04-25T12:50:23.091Z,19.29
2019-04-25T12:55:26.591Z,18.85
2019-04-25T13:00:31.347Z,19.73
2019-04-25T13:05:36.764Z,20.37
2019-04-25T13:10:38.680Z,20.25
2019-04-25T13:15:40.641Z,20.72
2019-04-25T13:20:42.746Z,20.27
2019-04-25T13:25:44.898Z,19.44
2019-04-25T13:31:12.468Z,18.69
2019-04-25T13:36:13.943Z,18.87
2019-04-25T13:41:16.023Z,18.28
2019-04-25T13:46:20.611Z,17.75
2019-04-25T13:51:23.022Z,16.55
2019-04-25T13:56:27.425Z,18.01
2019-04-25T14:01:31.837Z,17.63
2019-04-25T14:06:41.405Z,16.94
2019-04-25T14:11:44.811Z,16.74
2019-04-25T14:17:18.769Z,16.89
2019-04-25T14:22:25.223Z,16.55
2019-04-25T14:27:30.225Z,16.77
2019-04-25T14:32:33.932Z,16.33
2019-04-25T14:37:39.604Z,16.33
2019-04-25T14:42:39.967Z,16.35
2019-04-25T14:47:42.122Z,17.14
2019-04-25T14:52:43.928Z,17.00
2019-04-25T14:57:45.961Z,16.78
2019-04-25T15:02:48.076Z,16.71
2019-04-25T15:07:50.268Z,16.95
2019-04-25T15:12:52.513Z,16.80
2019-04-25T15:17:57.034Z,16.80
2019-04-25T15:22:59.291Z,16.61
2019-04-25T15:28:03.248Z,16.63
2019-04-25T15:33:06.818Z,16.57
2019-04-25T15:38:13.114Z,16.28
2019-04-25T15:43:33.674Z,16.24
2019-04-25T15:48:36.111Z,16.83
2019-04-25T15:53:38.141Z,17.11
2019-04-25T15:58:41.696Z,17.33
2019-04-25T16:03:44.637Z,16.84
2019-04-25T16:08:47.360Z,16.60
2019-04-25T16:13:49.262Z,16.67
2019-04-25T16:18:51.357Z,16.53
2019-04-25T16:23:54.966Z,16.88
2019-04-25T16:28:56.890Z,17.18
2019-04-25T16:33:58.797Z,16.87
2019-04-25T16:39:03.561Z,16.35
2019-04-25T16:44:13.296Z,16.37
2019-04-25T16:49:15.254Z,16.72
2019-04-25T16:54:17.327Z,17.01
2019-04-25T16:59:20.538Z,16.35
2019-04-25T17:04:24.325Z,16.70
2019-04-25T17:09:26.246Z,16.60
2019-04-25T17:14:46.590Z,16.57
2019-04-25T17:20:17.073Z,16.21
2019-04-25T17:25:21.140Z,16.18
2019-04-25T17:30:23.286Z,15.69
2019-04-25T17:35:53.823Z,15.71
2019-04-25T17:40:56.039Z,15.37
2019-04-25T17:45:58.776Z,15.42
2019-04-25T17:51:03.041Z,15.45
2019-04-25T17:56:05.248Z,15.42
2019-04-25T18:01:09.228Z,15.56
2019-04-25T18:06:11.328Z,15.39
2019-04-25T18:11:13.264Z,15.31
2019-04-25T18:16:25.099Z,15.40
2019-04-25T18:21:27.108Z,15.46
2019-04-25T18:26:48.593Z,15.34
2019-04-25T18:31:50.639Z,15.30
2019-04-25T18:37:12.322Z,15.40
2019-04-25T18:42:31.103Z,15.33
2019-04-25T18:47:33.217Z,15.42
2019-04-25T18:52:53.738Z,15.26
2019-04-25T18:58:18.111Z,15.16
2019-04-25T19:03:43.636Z,15.24
2019-04-25T19:08:47.088Z,15.49
2019-04-25T19:13:51.694Z,15.18
2019-04-25T19:19:01.560Z,15.30
2019-04-25T19:24:05.554Z,15.13
2019-04-25T19:29:09.220Z,15.15
2019-04-25T19:34:12.450Z,14.90
2019-04-25T19:39:16.377Z,14.88
2019-04-25T19:44:21.893Z,14.93
2019-04-25T19:49:23.827Z,14.90
2019-04-25T19:54:25.813Z,14.90
2019-04-25T19:59:27.713Z,14.59
2019-04-25T20:04:53.742Z,14.43
2019-04-25T20:10:28.004Z,14.21
2019-04-25T20:15:30.246Z,14.25
2019-04-25T20:20:32.128Z,14.26
2019-04-25T20:25:34.154Z,13.78
2019-04-25T20:30:36.307Z,14.02
2019-04-25T20:35:38.281Z,13.89
2019-04-25T20:40:40.237Z,13.81
2019-04-25T20:45:42.294Z,13.70
2019-04-25T20:50:44.224Z,13.59
2019-04-25T20:55:46.490Z,13.74
2019-04-25T21:00:52.311Z,13.54
2019-04-25T21:05:57.229Z,13.39
2019-04-25T21:11:00.640Z,13.52
2019-04-25T21:16:21.198Z,13.44
2019-04-25T21:21:22.919Z,13.42
2019-04-25T21:26:25.326Z,13.61
2019-04-25T21:31:27.358Z,13.28
2019-04-25T21:36:29.388Z,13.55
2019-04-25T21:42:00.096Z,13.24
2019-04-25T21:47:06.855Z,13.30
2019-04-25T21:52:09.254Z,13.39
2019-04-25T21:57:15.186Z,13.26
2019-04-25T22:02:18.576Z,13.16
2019-04-25T22:07:23.723Z,13.29
2019-04-25T22:12:26.035Z,13.24
2019-04-25T22:17:30.882Z,13.03
2019-04-25T22:22:33.463Z,13.20
2019-04-25T22:27:36.939Z,13.09
2019-04-25T22:32:54.662Z,13.06
2019-04-25T22:37:57.613Z,13.11
2019-04-25T22:43:00.449Z,13.06
2019-04-25T22:48:02.844Z,12.93
2019-04-25T22:53:05.012Z,12.99
2019-04-25T22:58:08.389Z,13.00
2019-04-25T23:03:27.509Z,13.00
2019-04-25T23:08:29.518Z,12.97
2019-04-25T23:13:31.748Z,12.97
2019-04-25T23:18:36.153Z,13.13
2019-04-25T23:23:38.017Z,12.94
2019-04-25T23:28:41.379Z,12.76
2019-04-25T23:33:43.532Z,12.74
2019-04-25T23:38:46.190Z,12.64
2019-04-25T23:43:48.698Z,12.52
2019-04-25T23:48:50.695Z,12.44
2019-04-25T23:53:52.603Z,12.60
2019-04-25T23:58:54.519Z,12.56
